Flugplatz Rostock-Laage Airport

Bericht für ETNL

vom 11.05. um 20:27 UTC

Wind 10 kt aus 10°

Sichtweite 4000 m

Code: TSRA

feuchter Dunst

gering bewölkt in 1500 ft

aufgebrochene Bewölkung in 3000 ft

aufgebrochene Bewölkung in 8000 ft

Temperatur 12.0°C

Taupunkt 11.0°C

Luftfeuchtigkeit 94%

Luftdruck 1004 hPa

ETNL 112027Z 01010KT 4000 -TSRA BR FEW015 BKN030CB BKN080 12/11 Q1004 GRN

Prognose für ETNL

vom 11.05. um 19:25 UTC

Zwischen 19:00 UTC und 00:00 UTC

Wind 10 kt aus 340°

Sichtweite 10 km oder mehr

keine signifikanten Wettererscheinungen

gering bewölkt in 2500 ft

aufgebrochene Bewölkung in 10000 ft


Zwischen 19:00 UTC und 01:00 UTC zeitweise

Wind 10 kt aus 330° in Böen 20 kt

Sichtweite 4000 m

Code: TSRA

aufgebrochene Bewölkung in 1500 ft

aufgebrochene Bewölkung in 3000 ft


Am 12.05. zwischen 00:00 und 02:00 UTC übergehend zu

Wind 10 kt aus 290°

Sichtweite 5000 m

schwacher Regen

aufgebrochene Bewölkung in 1500 ft

aufgebrochene Bewölkung in 7000 ft


Am 12.05. zwischen 02:00 UTC und 05:00 UTC zeitweise

Wind 10 kt aus 270°

Sichtweite 3000 m

Regen

Sprühregen

aufgebrochene Bewölkung in 700 ft

bedeckt in 5000 ft

TAF AMD ETNL 111925Z 1119/1205 34010KT 9999 NSW FEW025 BKN100 TEMPO 1119/1201 33010G20KT 4000 -TSRA BKN015 BKN030CB BECMG 1200/1202 29010KT 5000 -RA BKN015 BKN070 TEMPO 1202/1205 27010KT 3000 RADZ BKN007 OVC050 BY ETGL
Impressum